Terminal Aerodrome Forecast
Issued by NWS Jacksonville, FL

Home | Current Version | Previous Version | Text Only | Print | Product List | Glossary On
Versions: 1 2 3 4 5 6 7 8 9 10 11 12 13 14 15 16
000
FTUS42 KJAX 102300
TAFJAX
TAF
KJAX 102340Z 1100/1124 21004KT P6SM VCSH FEW040 BKN200
     FM111500 22004KT P6SM SCT035 BKN250
     FM111700 16006KT P6SM SCT040 BKN250 PROB30 1118/1122 5SM TSRA
      BKN035CB=

USA.gov is the U.S. government's official web portal to all federal, state and local government web resources and services.